Time;durP1;ratioP1;P1;durP2;ratioP2;P2;SDS_P1;SDS_P2;PMS_P1;PMS_P2;Temp;Humidity;BMP_temperature;BMP_pressure;BME280_temperature;BME280_humidity;BME280_pressure;Samples;Min_cycle;Max_cycle;Signal;HPM_P1;HPM_P2
2023/05/05 00:00:53;;;;;;;9.88;4.00;;;14.40;93.40;;;;;;5119099;27;20066;-79
2023/05/05 00:03:22;;;;;;;8.82;4.25;;;14.30;93.70;;;;;;5127505;28;20043;-79
2023/05/05 00:05:48;;;;;;;8.30;3.83;;;14.30;94.30;;;;;;5116111;28;20071;-80
2023/05/05 00:08:14;;;;;;;8.90;3.40;;;14.30;94.00;;;;;;5112823;28;20051;-80
2023/05/05 00:10:41;;;;;;;10.63;3.28;;;14.30;94.20;;;;;;5108879;27;20042;-80
2023/05/05 00:13:07;;;;;;;6.82;3.25;;;14.20;94.40;;;;;;5124378;27;20073;-80
2023/05/05 00:15:33;;;;;;;;;;;14.20;94.40;;;;;;5129834;27;20483;-80
2023/05/05 00:17:59;;;;;;;6.55;3.17;;;14.30;97.00;;;;;;5102035;27;19923;-79
2023/05/05 00:20:24;;;;;;;8.98;4.00;;;14.20;94.60;;;;;;5102862;28;20047;-79
2023/05/05 00:22:50;;;;;;;9.93;3.42;;;14.20;95.00;;;;;;5104603;28;20640;-79
2023/05/05 00:25:16;;;;;;;8.77;4.05;;;14.20;95.10;;;;;;5120212;28;20051;-80
2023/05/05 00:27:42;;;;;;;10.73;3.60;;;14.20;95.40;;;;;;5131363;27;20091;-81
2023/05/05 00:30:08;;;;;;;8.73;3.50;;;14.20;95.60;;;;;;5138708;27;20046;-79
2023/05/05 00:32:33;;;;;;;7.38;3.55;;;14.20;95.60;;;;;;5115011;27;20039;-82
2023/05/05 00:34:59;;;;;;;11.52;3.90;;;14.20;95.90;;;;;;5133273;27;20126;-80
2023/05/05 00:37:25;;;;;;;10.15;3.80;;;14.20;96.00;;;;;;5111473;27;20484;-80
2023/05/05 00:39:50;;;;;;;15.32;3.63;;;14.20;96.30;;;;;;5095426;28;20050;-79
2023/05/05 00:42:16;;;;;;;6.43;3.33;;;14.10;96.60;;;;;;5108572;27;20532;-80
2023/05/05 00:44:43;;;;;;;8.05;3.95;;;14.10;96.60;;;;;;5112419;28;20089;-80
2023/05/05 00:47:11;;;;;;;9.52;3.80;;;14.10;96.60;;;;;;5125394;27;20073;-80
2023/05/05 00:49:38;;;;;;;9.93;3.72;;;14.10;96.80;;;;;;5124466;27;20483;-79
2023/05/05 00:52:05;;;;;;;5.82;3.35;;;14.10;96.80;;;;;;5125221;27;20059;-75
2023/05/05 00:54:32;;;;;;;9.00;3.38;;;14.10;97.00;;;;;;5145418;27;20041;-75
2023/05/05 00:56:59;;;;;;;9.38;3.47;;;14.10;97.20;;;;;;5144297;27;20506;-75
2023/05/05 00:59:25;;;;;;;;;;;14.10;97.30;;;;;;5138967;27;20515;-76
2023/05/05 01:01:51;;;;;;;9.70;3.28;;;14.10;99.30;;;;;;5136004;27;19926;-75
2023/05/05 01:04:17;;;;;;;14.25;3.70;;;14.10;97.50;;;;;;5140782;27;20038;-75
2023/05/05 01:07:01;;;;;;;8.57;3.78;;;14.10;97.70;;;;;;5124088;27;20475;-75
2023/05/05 01:09:57;;;;;;;8.88;3.80;;;14.10;98.30;;;;;;5137434;27;20047;-74
2023/05/05 01:12:39;;;;;;;9.60;3.60;;;14.00;98.60;;;;;;5115002;27;20051;-75
2023/05/05 01:15:25;;;;;;;8.85;3.70;;;14.00;98.70;;;;;;5133353;27;20043;-75
2023/05/05 01:18:48;;;;;;;8.68;3.53;;;14.00;98.50;;;;;;5144152;27;20636;-75
2023/05/05 01:21:34;;;;;;;9.40;3.97;;;14.00;99.20;;;;;;5069500;28;20049;-75
2023/05/05 01:24:14;;;;;;;8.02;3.85;;;14.00;98.40;;;;;;5068911;28;20040;-74
2023/05/05 01:26:54;;;;;;;10.55;3.95;;;14.00;98.30;;;;;;5121587;27;20126;-76
2023/05/05 01:29:38;;;;;;;9.88;3.97;;;14.00;98.30;;;;;;5127860;27;20043;-75
2023/05/05 01:32:11;;;;;;;6.53;3.50;;;14.00;98.50;;;;;;5115426;27;20047;-75
2023/05/05 01:34:50;;;;;;;7.97;3.22;;;13.90;98.80;;;;;;5149532;27;20027;-75
2023/05/05 01:37:21;;;;;;;10.90;3.88;;;14.00;99.20;;;;;;5136158;27;20095;-75
2023/05/05 01:39:54;;;;;;;11.32;3.63;;;14.00;98.70;;;;;;5115235;27;20055;-75
2023/05/05 01:42:21;;;;;;;7.45;3.70;;;14.00;98.80;;;;;;5146487;27;20039;-75
2023/05/05 01:44:48;;;;;;;7.38;3.40;;;13.90;98.80;;;;;;5133189;27;20050;-76
2023/05/05 01:47:17;;;;;;;9.25;3.80;;;13.90;98.80;;;;;;5134446;27;20054;-75
2023/05/05 01:49:45;;;;;;;8.15;3.67;;;13.90;98.90;;;;;;5129523;27;20404;-76
2023/05/05 01:52:13;;;;;;;6.05;3.38;;;13.90;99.20;;;;;;5118060;27;20055;-75
2023/05/05 01:54:40;;;;;;;7.55;3.50;;;13.90;99.10;;;;;;5133428;27;20096;-75
2023/05/05 01:57:07;;;;;;;6.82;3.38;;;13.90;99.10;;;;;;5145508;27;20047;-75
2023/05/05 01:59:34;;;;;;;9.57;3.70;;;13.90;99.20;;;;;;5133062;27;20047;-76
2023/05/05 02:02:01;;;;;;;6.60;3.80;;;13.80;99.30;;;;;;5136634;27;20035;-76
2023/05/05 02:04:30;;;;;;;9.30;3.75;;;13.80;99.40;;;;;;5124636;27;20130;-75
2023/05/05 02:06:57;;;;;;;7.28;3.88;;;13.80;99.50;;;;;;5132170;27;20051;-75
2023/05/05 02:09:25;;;;;;;10.48;4.20;;;13.80;99.50;;;;;;5137766;27;20049;-76
2023/05/05 02:11:52;;;;;;;9.20;3.90;;;13.70;99.70;;;;;;5131480;27;20507;-76
2023/05/05 02:14:19;;;;;;;7.57;3.50;;;13.70;99.80;;;;;;5132882;27;20093;-76
2023/05/05 02:16:46;;;;;;;12.05;3.90;;;13.80;99.90;;;;;;5132959;27;20120;-75
2023/05/05 02:19:13;;;;;;;10.02;3.72;;;13.70;99.90;;;;;;5141532;27;20089;-75
2023/05/05 02:21:40;;;;;;;7.38;3.72;;;13.70;99.90;;;;;;5150225;27;20046;-75
2023/05/05 02:24:07;;;;;;;7.78;3.40;;;13.70;99.90;;;;;;5132451;27;20050;-75
2023/05/05 02:26:37;;;;;;;8.48;4.05;;;13.70;99.90;;;;;;5131864;27;20110;-75
2023/05/05 02:29:08;;;;;;;8.35;3.83;;;13.60;99.90;;;;;;5124596;27;20079;-75
2023/05/05 02:31:40;;;;;;;12.07;3.72;;;13.60;99.90;;;;;;5135218;27;20421;-75
2023/05/05 02:34:07;;;;;;;9.77;3.90;;;13.60;99.90;;;;;;5145952;27;20038;-75
2023/05/05 02:36:37;;;;;;;9.35;4.25;;;13.50;99.90;;;;;;5133506;27;20043;-75
2023/05/05 02:39:11;;;;;;;10.77;3.78;;;13.50;99.90;;;;;;5144798;27;20065;-75
2023/05/05 02:41:38;;;;;;;8.63;4.07;;;13.50;99.90;;;;;;5152704;27;20125;-75
2023/05/05 02:44:05;;;;;;;9.23;3.90;;;13.40;99.90;;;;;;5126773;27;20054;-75
2023/05/05 02:46:31;;;;;;;12.10;4.68;;;13.40;99.90;;;;;;5132768;27;20051;-75
2023/05/05 02:48:58;;;;;;;8.35;4.20;;;13.40;99.90;;;;;;5113330;27;20319;-75
2023/05/05 02:51:24;;;;;;;8.93;3.63;;;13.40;99.90;;;;;;5113633;27;20069;-75
2023/05/05 02:53:51;;;;;;;7.82;3.83;;;13.40;99.90;;;;;;5137099;27;20071;-75
2023/05/05 02:56:24;;;;;;;5.88;3.55;;;13.40;99.90;;;;;;5152126;27;20054;-75
2023/05/05 02:59:14;;;;;;;9.73;4.05;;;13.40;99.90;;;;;;5137602;27;20053;-75
2023/05/05 03:02:16;;;;;;;9.93;4.05;;;13.40;99.90;;;;;;5114446;27;20519;-75
2023/05/05 03:04:48;;;;;;;7.05;3.40;;;13.40;99.90;;;;;;5132635;27;20047;-75
2023/05/05 03:07:45;;;;;;;8.48;4.00;;;13.40;99.90;;;;;;5131282;27;20121;-75
2023/05/05 03:10:25;;;;;;;10.20;4.13;;;13.40;99.90;;;;;;5089078;27;20158;-75
2023/05/05 03:12:57;;;;;;;9.35;3.78;;;13.40;99.90;;;;;;5127089;27;20134;-75
2023/05/05 03:15:34;;;;;;;7.25;3.70;;;13.40;99.90;;;;;;5132111;27;20038;-75
2023/05/05 03:18:02;;;;;;;7.65;3.55;;;13.30;99.90;;;;;;5135096;27;20100;-75
2023/05/05 03:20:28;;;;;;;8.32;3.63;;;13.30;99.90;;;;;;5131557;27;20129;-75
2023/05/05 03:22:54;;;;;;;6.85;3.60;;;13.30;99.90;;;;;;5131764;27;20073;-76
2023/05/05 03:25:21;;;;;;;11.65;4.25;;;13.20;99.90;;;;;;5131493;27;20479;-75
2023/05/05 03:27:46;;;;;;;;;;;13.20;99.90;;;;;;5129860;27;20042;-75
2023/05/05 03:30:12;;;;;;;9.52;4.13;;;13.20;99.90;;;;;;5150322;27;20555;-75
2023/05/05 03:32:38;;;;;;;;;;;13.00;99.90;;;;;;5152024;27;20047;-75
2023/05/05 03:35:04;;;;;;;7.68;4.28;;;13.00;99.90;;;;;;5151794;27;19923;-75
2023/05/05 03:37:30;;;;;;;6.18;3.35;;;13.00;99.90;;;;;;5143904;27;20043;-75
2023/05/05 03:39:55;;;;;;;9.73;3.65;;;13.00;99.90;;;;;;5119417;27;20468;-75
2023/05/05 03:42:21;;;;;;;8.68;3.80;;;13.00;99.90;;;;;;5130465;27;20446;-75
2023/05/05 03:44:47;;;;;;;10.02;3.90;;;13.00;99.90;;;;;;5113623;27;20046;-75
2023/05/05 03:47:12;;;;;;;9.52;3.70;;;13.00;99.90;;;;;;5130617;27;20126;-75
2023/05/05 03:49:38;;;;;;;7.18;3.13;;;13.00;99.90;;;;;;5131809;27;20079;-75
2023/05/05 03:52:04;;;;;;;9.93;3.78;;;13.00;99.90;;;;;;5130728;27;20496;-76
2023/05/05 03:54:30;;;;;;;11.68;4.30;;;13.00;99.90;;;;;;5131645;28;20046;-75
2023/05/05 03:56:57;;;;;;;8.50;4.15;;;13.10;99.90;;;;;;5130897;28;20043;-75
2023/05/05 03:59:22;;;;;;;7.13;3.78;;;13.10;99.90;;;;;;5131079;28;20142;-75
2023/05/05 04:01:48;;;;;;;7.22;3.40;;;13.10;99.90;;;;;;5113576;28;20088;-75
2023/05/05 04:04:14;;;;;;;;;;;13.10;99.90;;;;;;5130802;27;20075;-75
2023/05/05 04:06:40;;;;;;;7.85;3.90;;;13.10;99.90;;;;;;5130931;28;19923;-75
2023/05/05 04:09:06;;;;;;;8.00;3.70;;;13.10;99.90;;;;;;5127701;27;20050;-75
2023/05/05 04:11:31;;;;;;;6.50;3.60;;;13.10;99.90;;;;;;5135827;27;20061;-75
2023/05/05 04:13:57;;;;;;;11.35;4.68;;;13.10;99.90;;;;;;5112737;28;20047;-76
2023/05/05 04:16:23;;;;;;;9.40;4.68;;;13.10;99.90;;;;;;5095896;28;20046;-76
2023/05/05 04:18:49;;;;;;;9.50;3.88;;;13.20;99.90;;;;;;5131018;28;20498;-76
2023/05/05 04:21:14;;;;;;;10.15;4.60;;;13.20;99.90;;;;;;5113914;27;20058;-76
2023/05/05 04:23:40;;;;;;;9.15;4.43;;;13.10;99.90;;;;;;5142101;27;20529;-76
2023/05/05 04:26:06;;;;;;;8.65;4.35;;;13.00;99.90;;;;;;5113370;27;20419;-76
2023/05/05 04:28:31;;;;;;;8.80;4.47;;;13.00;99.90;;;;;;5155793;27;20099;-76
2023/05/05 04:30:59;;;;;;;12.10;5.05;;;12.90;99.90;;;;;;5156276;27;20046;-75
2023/05/05 04:33:24;;;;;;;11.77;4.88;;;12.80;99.90;;;;;;5153504;27;20057;-76
2023/05/05 04:35:50;;;;;;;8.68;4.68;;;12.80;99.90;;;;;;5146361;27;20117;-75
2023/05/05 04:38:18;;;;;;;7.30;4.50;;;12.80;99.90;;;;;;5116194;27;20043;-75
2023/05/05 04:40:46;;;;;;;8.43;4.53;;;12.70;99.90;;;;;;5134849;27;20047;-76
2023/05/05 04:43:12;;;;;;;9.93;4.32;;;12.70;99.90;;;;;;5148338;27;20053;-75
2023/05/05 04:45:38;;;;;;;12.45;5.00;;;12.70;99.90;;;;;;5152317;27;20043;-75
2023/05/05 04:48:04;;;;;;;12.95;4.47;;;12.80;99.90;;;;;;5115946;27;20058;-76
2023/05/05 04:50:30;;;;;;;9.50;5.00;;;12.80;99.90;;;;;;5134179;27;20104;-76
2023/05/05 04:52:55;;;;;;;;;;;12.80;99.90;;;;;;5117184;27;20059;-75
2023/05/05 04:55:21;;;;;;;10.55;4.15;;;12.80;99.90;;;;;;5134307;27;19919;-75
2023/05/05 04:57:47;;;;;;;14.25;4.85;;;12.80;99.90;;;;;;5133880;27;20118;-75
2023/05/05 05:00:13;;;;;;;9.35;4.93;;;12.70;99.90;;;;;;5134552;27;20046;-76
2023/05/05 05:02:38;;;;;;;9.77;4.65;;;12.70;99.90;;;;;;5155289;27;20480;-75
2023/05/05 05:05:04;;;;;;;10.88;4.47;;;12.70;99.90;;;;;;5155287;27;20047;-75
2023/05/05 05:07:30;;;;;;;11.52;4.97;;;12.70;99.90;;;;;;5152982;27;20053;-75
2023/05/05 05:09:56;;;;;;;10.23;4.55;;;12.70;99.90;;;;;;5125066;27;20047;-75
2023/05/05 05:12:22;;;;;;;9.48;4.45;;;12.70;99.90;;;;;;5133087;27;20050;-75
2023/05/05 05:14:47;;;;;;;8.68;4.47;;;12.70;99.90;;;;;;5143627;27;20099;-75
2023/05/05 05:17:13;;;;;;;9.07;3.92;;;12.70;99.90;;;;;;5153421;27;20050;-75
2023/05/05 05:19:39;;;;;;;10.57;4.70;;;12.70;99.90;;;;;;5152871;27;20174;-75
2023/05/05 05:22:04;;;;;;;9.38;4.63;;;12.70;99.90;;;;;;5132009;27;20058;-75
2023/05/05 05:24:30;;;;;;;8.73;4.18;;;12.80;99.90;;;;;;5153626;27;20092;-75
2023/05/05 05:26:56;;;;;;;9.02;4.63;;;12.80;99.90;;;;;;5154151;27;20080;-75
2023/05/05 05:29:21;;;;;;;8.57;4.30;;;12.80;99.90;;;;;;5154534;27;20049;-75
2023/05/05 05:31:48;;;;;;;10.20;4.50;;;12.80;99.90;;;;;;5155025;27;20074;-75
2023/05/05 05:34:14;;;;;;;9.15;4.28;;;12.80;99.90;;;;;;5153233;27;20047;-75
2023/05/05 05:36:40;;;;;;;8.13;4.47;;;12.80;99.90;;;;;;5146202;27;20472;-75
2023/05/05 05:39:05;;;;;;;13.82;4.57;;;12.90;99.90;;;;;;5134164;27;20047;-75
2023/05/05 05:41:31;;;;;;;11.65;4.20;;;12.90;99.90;;;;;;5129527;27;20039;-75
2023/05/05 05:43:57;;;;;;;9.55;4.60;;;12.90;99.90;;;;;;5154601;27;20049;-75
2023/05/05 05:46:22;;;;;;;9.00;4.13;;;12.90;99.90;;;;;;5154262;27;20057;-75
2023/05/05 05:48:48;;;;;;;10.40;4.15;;;12.90;99.90;;;;;;5154418;27;20051;-75
2023/05/05 05:51:14;;;;;;;12.55;4.63;;;12.90;99.90;;;;;;5134782;27;20054;-77
2023/05/05 05:53:39;;;;;;;7.97;4.28;;;12.90;99.90;;;;;;5118977;27;20050;-75
2023/05/05 05:56:05;;;;;;;9.82;4.60;;;13.00;99.90;;;;;;5153597;27;20038;-75
2023/05/05 05:58:31;;;;;;;8.02;4.22;;;13.00;99.90;;;;;;5118233;27;20496;-75
2023/05/05 06:00:58;;;;;;;9.98;4.20;;;13.10;99.90;;;;;;5140319;27;20099;-75
2023/05/05 06:03:25;;;;;;;10.90;4.20;;;13.10;99.90;;;;;;5106271;27;20065;-75
2023/05/05 06:05:50;;;;;;;7.55;3.97;;;13.10;99.90;;;;;;5153663;27;20047;-75
2023/05/05 06:08:16;;;;;;;10.10;4.53;;;13.20;99.90;;;;;;5135123;27;20118;-76
2023/05/05 06:10:42;;;;;;;9.60;4.75;;;13.20;99.90;;;;;;5153567;27;20046;-75
2023/05/05 06:13:08;;;;;;;11.65;5.10;;;13.30;99.90;;;;;;5139939;27;20434;-75
2023/05/05 06:15:33;;;;;;;10.23;5.03;;;13.30;99.90;;;;;;5132455;27;20053;-75
2023/05/05 06:17:59;;;;;;;8.90;4.63;;;13.30;99.90;;;;;;5114496;27;20101;-74
2023/05/05 06:20:25;;;;;;;10.75;5.45;;;13.30;99.90;;;;;;5147031;27;20047;-72
2023/05/05 06:22:50;;;;;;;12.88;5.00;;;13.20;99.90;;;;;;5148910;27;20042;-75
2023/05/05 06:25:16;;;;;;;9.07;5.00;;;13.20;99.90;;;;;;5153740;27;20349;-76
2023/05/05 06:27:42;;;;;;;10.77;4.93;;;13.20;99.90;;;;;;5152592;27;20055;-76
2023/05/05 06:30:08;;;;;;;12.82;5.05;;;13.20;99.90;;;;;;5153646;27;20373;-75
2023/05/05 06:32:33;;;;;;;;;;;13.20;99.90;;;;;;5117943;27;20452;-76
2023/05/05 06:35:01;;;;;;;8.55;4.63;;;13.20;99.90;;;;;;5153786;27;20013;-74
2023/05/05 06:37:26;;;;;;;11.88;5.07;;;13.20;99.90;;;;;;5152200;27;20536;-74
2023/05/05 06:39:52;;;;;;;13.70;5.38;;;13.20;99.90;;;;;;5134587;27;20051;-72
2023/05/05 06:42:20;;;;;;;12.30;4.95;;;13.20;99.90;;;;;;5150980;27;20042;-80
2023/05/05 06:44:46;;;;;;;10.65;5.03;;;13.20;99.90;;;;;;5150646;27;20081;-77
2023/05/05 06:47:12;;;;;;;10.65;5.10;;;13.30;99.90;;;;;;5113904;27;20074;-77
2023/05/05 06:49:37;;;;;;;16.50;6.75;;;13.40;99.90;;;;;;5113903;27;20047;-76
2023/05/05 06:52:03;;;;;;;11.27;6.07;;;13.40;99.90;;;;;;5121896;27;20059;-82
2023/05/05 06:54:29;;;;;;;11.63;5.95;;;13.40;99.90;;;;;;5131682;27;20129;-76
2023/05/05 06:56:55;;;;;;;11.05;5.35;;;13.40;99.90;;;;;;5131655;27;20051;-74
2023/05/05 06:59:20;;;;;;;9.85;5.78;;;13.40;99.90;;;;;;5132252;27;20130;-76
2023/05/05 07:01:46;;;;;;;15.35;6.55;;;13.40;99.90;;;;;;5132021;27;20043;-74
2023/05/05 07:04:12;;;;;;;11.82;6.05;;;13.40;99.90;;;;;;5148653;27;20087;-75
2023/05/05 07:06:37;;;;;;;12.75;5.53;;;13.40;99.90;;;;;;5133397;27;20495;-79
2023/05/05 07:09:03;;;;;;;13.20;5.97;;;13.50;99.90;;;;;;5149670;27;20047;-73
2023/05/05 07:11:29;;;;;;;13.45;6.03;;;13.50;99.90;;;;;;5130804;27;20085;-73
2023/05/05 07:13:54;;;;;;;10.13;5.78;;;13.60;99.90;;;;;;5113725;27;20055;-70
2023/05/05 07:16:20;;;;;;;10.38;5.95;;;13.60;99.90;;;;;;5147993;27;20078;-70
2023/05/05 07:18:46;;;;;;;19.23;6.60;;;13.70;99.90;;;;;;5148634;27;20039;-74
2023/05/05 07:21:11;;;;;;;16.15;6.45;;;13.70;99.90;;;;;;5140072;27;20518;-74
2023/05/05 07:23:39;;;;;;;15.30;7.03;;;13.70;99.90;;;;;;5143231;27;20392;-73
2023/05/05 07:26:05;;;;;;;11.52;6.40;;;13.80;99.90;;;;;;5141488;27;20119;-73
2023/05/05 07:28:30;;;;;;;14.55;6.60;;;13.80;99.90;;;;;;5125100;27;20039;-73
2023/05/05 07:30:56;;;;;;;12.80;6.97;;;13.90;99.90;;;;;;5141056;27;20039;-73
2023/05/05 07:33:22;;;;;;;13.65;6.70;;;13.90;99.90;;;;;;5131091;27;20078;-73
2023/05/05 07:35:47;;;;;;;11.73;6.57;;;13.90;99.90;;;;;;5144992;27;20064;-72
2023/05/05 07:38:13;;;;;;;14.48;7.13;;;14.00;99.90;;;;;;5142866;27;20071;-72
2023/05/05 07:40:39;;;;;;;18.67;7.70;;;14.00;99.90;;;;;;5142425;27;20086;-74
2023/05/05 07:43:04;;;;;;;12.05;6.50;;;14.00;99.90;;;;;;5119375;27;20047;-73
2023/05/05 07:45:30;;;;;;;18.15;6.47;;;14.10;99.90;;;;;;5140962;27;20070;-71
2023/05/05 07:47:56;;;;;;;14.05;7.13;;;14.10;99.90;;;;;;5131515;27;20047;-71
2023/05/05 07:50:22;;;;;;;19.88;7.72;;;14.20;99.90;;;;;;5138546;27;20050;-71
2023/05/05 07:52:48;;;;;;;13.90;6.80;;;14.20;99.90;;;;;;5130738;27;20534;-71
2023/05/05 07:55:14;;;;;;;16.65;7.82;;;14.30;99.90;;;;;;5131444;27;20051;-71
2023/05/05 07:57:40;;;;;;;17.42;7.78;;;14.40;99.90;;;;;;5129414;27;20042;-71
2023/05/05 08:00:06;;;;;;;15.55;7.40;;;14.40;99.90;;;;;;5131024;27;20078;-71
2023/05/05 08:02:31;;;;;;;14.73;7.53;;;14.50;99.90;;;;;;5133564;27;20039;-74
2023/05/05 08:04:57;;;;;;;18.33;8.18;;;14.50;99.90;;;;;;5152280;27;20038;-70
2023/05/05 08:07:23;;;;;;;15.13;8.23;;;14.60;99.90;;;;;;5136018;27;20047;-71
2023/05/05 08:09:48;;;;;;;17.10;8.95;;;14.60;99.90;;;;;;5143264;27;20047;-71
2023/05/05 08:12:16;;;;;;;14.20;7.70;;;14.70;99.90;;;;;;5132064;27;20047;-71
2023/05/05 08:14:42;;;;;;;14.77;8.20;;;14.70;99.90;;;;;;5140788;27;20064;-71
2023/05/05 08:17:08;;;;;;;15.98;8.07;;;14.80;99.90;;;;;;5126317;27;20039;-71
2023/05/05 08:19:33;;;;;;;23.35;7.97;;;14.90;99.90;;;;;;5112696;28;20467;-74
2023/05/05 08:22:00;;;;;;;15.18;8.50;;;14.90;99.90;;;;;;5130264;27;20507;-71
2023/05/05 08:24:26;;;;;;;13.45;7.25;;;14.90;99.90;;;;;;5105981;27;20066;-71
2023/05/05 08:26:51;;;;;;;;;;;15.00;99.90;;;;;;5133953;27;20039;-72
2023/05/05 08:29:17;;;;;;;18.60;8.40;;;15.00;99.90;;;;;;5140987;27;19926;-71
2023/05/05 08:31:43;;;;;;;14.10;8.05;;;15.10;99.90;;;;;;5151194;27;20484;-77
2023/05/05 08:34:09;;;;;;;;;;;15.10;99.90;;;;;;5118124;28;20497;-71
2023/05/05 08:36:35;;;;;;;14.75;8.48;;;15.20;99.90;;;;;;5133420;27;19952;-72
2023/05/05 08:39:00;;;;;;;14.40;8.23;;;15.20;99.90;;;;;;5150354;27;20546;-71
2023/05/05 08:41:27;;;;;;;15.02;7.40;;;15.30;99.90;;;;;;5147959;27;20050;-71
2023/05/05 08:43:53;;;;;;;20.27;9.48;;;15.30;99.90;;;;;;5130716;28;20051;-72
2023/05/05 08:46:19;;;;;;;14.18;7.75;;;15.40;99.90;;;;;;5130890;28;20440;-72
2023/05/05 08:48:46;;;;;;;15.10;7.90;;;15.50;99.90;;;;;;5130186;28;20063;-72
2023/05/05 08:51:19;;;;;;;16.80;7.80;;;15.60;99.90;;;;;;5130080;28;20523;-72
2023/05/05 08:54:02;;;;;;;15.68;8.35;;;15.60;99.90;;;;;;5130500;28;20147;-72
2023/05/05 08:56:33;;;;;;;15.13;7.78;;;15.80;99.90;;;;;;5121962;27;20050;-72
2023/05/05 08:59:00;;;;;;;15.80;8.32;;;15.90;99.90;;;;;;5111679;27;20043;-72
2023/05/05 09:01:26;;;;;;;16.55;8.30;;;16.00;99.90;;;;;;5130553;28;20487;-74
2023/05/05 09:03:52;;;;;;;15.27;7.50;;;16.20;99.90;;;;;;5097716;27;20051;-75
2023/05/05 09:06:22;;;;;;;15.88;8.25;;;16.30;99.90;;;;;;5130227;28;20053;-72
2023/05/05 09:08:48;;;;;;;14.02;8.23;;;16.30;99.90;;;;;;5130397;27;20054;-69
2023/05/05 09:11:14;;;;;;;14.55;8.20;;;16.40;99.90;;;;;;5153564;27;20372;-70
2023/05/05 09:13:40;;;;;;;16.88;8.68;;;16.40;99.90;;;;;;5155079;27;20058;-72
2023/05/05 09:16:06;;;;;;;15.60;8.70;;;16.50;99.90;;;;;;5154848;27;20085;-70
2023/05/05 09:18:32;;;;;;;14.80;8.05;;;16.50;99.90;;;;;;5154711;27;20731;-70
2023/05/05 09:20:58;;;;;;;14.30;8.48;;;16.50;99.90;;;;;;5151993;27;20114;-70
2023/05/05 09:23:23;;;;;;;;;;;16.60;99.90;;;;;;5135005;27;20086;-70
2023/05/05 09:26:04;;;;;;;15.88;7.70;;;16.60;99.90;;;;;;5144414;27;19971;-70
2023/05/05 09:28:30;;;;;;;18.35;8.63;;;16.70;99.90;;;;;;5138400;27;20050;-71
2023/05/05 09:31:10;;;;;;;;;;;16.80;99.90;;;;;;5134087;27;20126;-70
2023/05/05 09:33:36;;;;;;;14.70;8.45;;;16.90;99.90;;;;;;5134012;27;19971;-70
2023/05/05 09:36:02;;;;;;;16.73;8.43;;;17.00;99.90;;;;;;5133032;27;20057;-70
2023/05/05 09:38:28;;;;;;;18.70;9.77;;;17.10;99.90;;;;;;5134211;27;20051;-70
2023/05/05 09:40:53;;;;;;;;;;;17.10;99.90;;;;;;5133512;27;20086;-70
2023/05/05 09:43:21;;;;;;;15.48;8.30;;;17.20;99.90;;;;;;5146374;27;19923;-70
2023/05/05 09:45:50;;;;;;;17.17;8.77;;;17.20;99.90;;;;;;5138915;27;20524;-71
2023/05/05 09:48:42;;;;;;;15.00;8.48;;;17.20;99.90;;;;;;5133481;27;20055;-70
2023/05/05 09:51:08;;;;;;;18.08;9.23;;;17.30;99.90;;;;;;5128989;27;20055;-70
2023/05/05 09:53:39;;;;;;;16.75;9.40;;;17.30;99.90;;;;;;5154690;27;20061;-70
2023/05/05 09:56:05;;;;;;;16.80;8.82;;;17.40;99.90;;;;;;5152933;27;20035;-70
2023/05/05 09:58:31;;;;;;;16.77;9.07;;;17.50;99.90;;;;;;5154543;27;20093;-70
2023/05/05 10:00:57;;;;;;;;;;;17.70;99.90;;;;;;5154562;27;20082;-71
2023/05/05 10:03:24;;;;;;;16.25;9.68;;;17.70;99.90;;;;;;5153309;27;19967;-70
2023/05/05 10:05:54;;;;;;;16.10;9.27;;;17.80;99.90;;;;;;5152907;27;20054;-70
2023/05/05 10:08:25;;;;;;;25.90;10.27;;;18.00;99.90;;;;;;5153108;27;20099;-70
2023/05/05 10:10:52;;;;;;;17.60;8.85;;;18.10;99.90;;;;;;5153314;27;20058;-70
2023/05/05 10:13:20;;;;;;;17.40;9.63;;;18.20;99.90;;;;;;5134862;27;20039;-70
2023/05/05 10:15:54;;;;;;;18.90;8.68;;;18.40;99.90;;;;;;5133028;27;20051;-74
2023/05/05 10:18:27;;;;;;;18.60;8.98;;;18.50;99.90;;;;;;5133012;27;20040;-70
2023/05/05 10:21:02;;;;;;;17.17;9.27;;;18.70;99.90;;;;;;5131987;27;20047;-70
2023/05/05 10:23:38;;;;;;;19.88;10.25;;;18.80;99.90;;;;;;5133571;27;20065;-72
2023/05/05 10:26:09;;;;;;;16.77;9.80;;;18.90;99.90;;;;;;5131784;27;20047;-70
2023/05/05 10:28:44;;;;;;;20.42;9.63;;;19.00;99.90;;;;;;5133165;27;20051;-70
2023/05/05 10:31:23;;;;;;;16.02;8.75;;;19.10;99.90;;;;;;5132433;27;20383;-70
2023/05/05 10:33:57;;;;;;;15.77;8.25;;;19.20;99.90;;;;;;5151031;27;20077;-73
2023/05/05 10:36:24;;;;;;;15.77;8.93;;;19.30;99.90;;;;;;5153195;27;20158;-71
2023/05/05 10:38:55;;;;;;;26.98;9.27;;;19.40;99.90;;;;;;5150298;27;20047;-74
2023/05/05 10:41:21;;;;;;;15.88;8.13;;;19.50;99.90;;;;;;5152242;27;20212;-70
2023/05/05 10:43:47;;;;;;;;;;;19.60;99.90;;;;;;5135557;27;20122;-70
2023/05/05 10:46:13;;;;;;;19.02;8.15;;;19.50;99.90;;;;;;5134246;27;19923;-70
2023/05/05 10:48:48;;;;;;;14.48;7.70;;;19.50;99.90;;;;;;5152975;27;20122;-70
2023/05/05 10:51:34;;;;;;;16.05;7.88;;;19.40;99.90;;;;;;5149055;27;20543;-71
2023/05/05 10:54:15;;;;;;;14.68;7.82;;;19.30;99.90;;;;;;5153018;27;20046;-71
2023/05/05 10:56:42;;;;;;;16.30;8.93;;;19.30;99.90;;;;;;5136301;27;20051;-71
2023/05/05 10:59:36;;;;;;;21.40;8.98;;;19.30;99.90;;;;;;5131563;27;20495;-70
2023/05/05 11:02:27;;;;;;;17.48;8.65;;;19.50;99.90;;;;;;5142831;27;20051;-70
2023/05/05 11:05:15;;;;;;;16.45;7.47;;;19.60;99.90;;;;;;5153317;27;20669;-73
2023/05/05 11:07:42;;;;;;;12.80;4.38;;;19.70;99.90;;;;;;5132326;27;20054;-70
2023/05/05 11:10:10;;;;;;;6.38;3.10;;;19.80;99.90;;;;;;5131907;27;20050;-70
2023/05/05 11:12:56;;;;;;;7.88;2.55;;;19.90;99.90;;;;;;5131417;27;20043;-70
2023/05/05 11:15:25;;;;;;;3.00;1.50;;;20.10;99.90;;;;;;5132127;27;20058;-70
2023/05/05 11:17:52;;;;;;;5.68;2.20;;;20.20;99.90;;;;;;5136526;27;20122;-70
2023/05/05 11:20:42;;;;;;;6.57;2.47;;;20.20;99.90;;;;;;5145082;27;20085;-71
2023/05/05 11:23:07;;;;;;;5.85;2.50;;;20.30;99.90;;;;;;5133218;27;20046;-69
2023/05/05 11:25:33;;;;;;;;;;;20.40;99.90;;;;;;5136675;27;20050;-70
2023/05/05 11:28:09;;;;;;;7.38;3.33;;;20.50;99.90;;;;;;5130011;27;19930;-71
2023/05/05 11:30:55;;;;;;;6.53;3.70;;;20.50;99.90;;;;;;5131609;27;20058;-69
2023/05/05 11:33:27;;;;;;;6.30;3.38;;;20.50;99.90;;;;;;5129876;27;20477;-77
2023/05/05 11:35:57;;;;;;;7.13;3.17;;;20.50;99.90;;;;;;5118371;27;20077;-76
2023/05/05 11:38:35;;;;;;;8.18;3.90;;;20.50;99.90;;;;;;5152110;27;20046;-82
2023/05/05 11:41:18;;;;;;;4.88;2.47;;;20.40;99.90;;;;;;5113960;27;20047;-69
2023/05/05 11:43:44;;;;;;;6.00;2.85;;;20.30;99.90;;;;;;5131088;27;20051;-69
2023/05/05 11:46:11;;;;;;;5.85;2.72;;;20.20;99.90;;;;;;5140240;27;20564;-69
2023/05/05 11:48:47;;;;;;;6.07;2.63;;;20.10;99.90;;;;;;5151610;27;20046;-69
2023/05/05 11:51:14;;;;;;;5.70;3.13;;;20.10;99.90;;;;;;5149628;27;20105;-69
2023/05/05 11:53:47;;;;;;;6.82;3.13;;;20.00;99.90;;;;;;5138787;27;20480;-70
2023/05/05 11:56:23;;;;;;;5.38;2.80;;;19.90;99.90;;;;;;5137582;27;20529;-70
2023/05/05 11:59:09;;;;;;;7.50;2.92;;;19.80;99.90;;;;;;5151905;27;20507;-70
2023/05/05 12:01:39;;;;;;;4.70;2.20;;;19.80;99.90;;;;;;5131657;27;20047;-70
2023/05/05 12:04:05;;;;;;;8.43;2.25;;;19.70;99.90;;;;;;5132733;27;20050;-69
2023/05/05 12:06:32;;;;;;;6.25;2.30;;;19.70;99.90;;;;;;5135333;27;20047;-69
2023/05/05 12:08:59;;;;;;;4.32;2.00;;;19.60;99.90;;;;;;5131217;28;20041;-75
2023/05/05 12:11:25;;;;;;;5.07;2.10;;;19.50;99.90;;;;;;5111470;28;20419;-75
2023/05/05 12:14:06;;;;;;;;;;;19.50;99.90;;;;;;5113517;28;20054;-78
2023/05/05 12:16:31;;;;;;;5.07;2.30;;;19.40;99.90;;;;;;5131817;27;20005;-72
2023/05/05 12:19:04;;;;;;;;;;;19.40;99.90;;;;;;5135242;27;20122;-72
2023/05/05 12:21:31;;;;;;;9.15;2.80;;;19.30;99.90;;;;;;5151181;27;19919;-71
2023/05/05 12:23:57;;;;;;;7.63;2.78;;;19.20;99.90;;;;;;5123825;27;20043;-72
2023/05/05 12:26:32;;;;;;;8.68;3.03;;;19.10;99.90;;;;;;5135425;27;20045;-71
2023/05/05 12:28:58;;;;;;;7.57;3.15;;;18.80;99.90;;;;;;5134078;27;20050;-71
2023/05/05 12:31:53;;;;;;;6.35;2.88;;;18.50;99.90;;;;;;5151241;27;20058;-72
2023/05/05 12:34:20;;;;;;;6.15;3.55;;;18.20;99.90;;;;;;5128965;27;20055;-72
2023/05/05 12:36:46;;;;;;;10.02;3.03;;;18.10;99.90;;;;;;5142491;27;20043;-72
2023/05/05 12:39:12;;;;;;;10.13;4.40;;;18.10;99.90;;;;;;5133246;27;20035;-72
2023/05/05 12:41:37;;;;;;;;;;;18.10;99.90;;;;;;5133340;27;20055;-72
2023/05/05 12:44:04;;;;;;;6.70;2.78;;;18.10;99.90;;;;;;5132155;27;20380;-74
2023/05/05 12:46:30;;;;;;;7.30;2.47;;;18.10;99.90;;;;;;5135015;27;20100;-72
2023/05/05 12:49:04;;;;;;;6.80;2.90;;;18.20;99.90;;;;;;5134586;27;20091;-72
2023/05/05 12:51:33;;;;;;;6.68;2.80;;;18.20;99.90;;;;;;5134353;27;20058;-72
2023/05/05 12:54:11;;;;;;;7.03;3.53;;;18.30;99.90;;;;;;5135029;27;20122;-72